sensor_id;sensor_type;location;lat;lon;timestamp;P1;durP1;ratioP1;P2;durP2;ratioP2
68010;SDS011;54794;48.348;7.878;2022-09-30T00:01:45;2.45;;;1.73;;
68010;SDS011;54794;48.348;7.878;2022-09-30T00:04:17;3.97;;;1.70;;
68010;SDS011;54794;48.348;7.878;2022-09-30T00:06:49;2.88;;;1.98;;
68010;SDS011;54794;48.348;7.878;2022-09-30T00:09:18;1.90;;;1.35;;
68010;SDS011;54794;48.348;7.878;2022-09-30T00:11:47;2.05;;;1.65;;
68010;SDS011;54794;48.348;7.878;2022-09-30T00:14:15;1.87;;;1.33;;
68010;SDS011;54794;48.348;7.878;2022-09-30T00:16:45;2.35;;;1.48;;
68010;SDS011;54794;48.348;7.878;2022-09-30T00:19:13;1.60;;;1.27;;
68010;SDS011;54794;48.348;7.878;2022-09-30T00:24:07;1.63;;;1.42;;
68010;SDS011;54794;48.348;7.878;2022-09-30T00:26:35;3.33;;;1.80;;
68010;SDS011;54794;48.348;7.878;2022-09-30T00:29:02;2.47;;;1.60;;
68010;SDS011;54794;48.348;7.878;2022-09-30T00:31:31;3.75;;;1.73;;
68010;SDS011;54794;48.348;7.878;2022-09-30T00:34:00;2.70;;;1.60;;
68010;SDS011;54794;48.348;7.878;2022-09-30T00:36:45;2.50;;;1.27;;
68010;SDS011;54794;48.348;7.878;2022-09-30T00:39:18;2.60;;;1.70;;
68010;SDS011;54794;48.348;7.878;2022-09-30T00:41:53;2.45;;;1.88;;
68010;SDS011;54794;48.348;7.878;2022-09-30T00:50:45;2.22;;;1.80;;
68010;SDS011;54794;48.348;7.878;2022-09-30T00:53:22;3.78;;;1.67;;
68010;SDS011;54794;48.348;7.878;2022-09-30T00:58:29;2.90;;;1.83;;
68010;SDS011;54794;48.348;7.878;2022-09-30T01:01:04;2.50;;;1.90;;
68010;SDS011;54794;48.348;7.878;2022-09-30T01:03:33;2.30;;;1.75;;
68010;SDS011;54794;48.348;7.878;2022-09-30T01:06:23;3.03;;;1.90;;
68010;SDS011;54794;48.348;7.878;2022-09-30T01:08:50;2.65;;;1.63;;
68010;SDS011;54794;48.348;7.878;2022-09-30T01:11:18;2.22;;;1.67;;
68010;SDS011;54794;48.348;7.878;2022-09-30T01:13:45;2.03;;;1.80;;
68010;SDS011;54794;48.348;7.878;2022-09-30T01:24:55;4.32;;;1.98;;
68010;SDS011;54794;48.348;7.878;2022-09-30T01:31:17;2.05;;;1.58;;
68010;SDS011;54794;48.348;7.878;2022-09-30T01:34:14;3.03;;;2.30;;
68010;SDS011;54794;48.348;7.878;2022-09-30T01:37:07;4.65;;;2.30;;
68010;SDS011;54794;48.348;7.878;2022-09-30T01:40:04;4.18;;;2.00;;
68010;SDS011;54794;48.348;7.878;2022-09-30T01:45:32;4.20;;;2.15;;
68010;SDS011;54794;48.348;7.878;2022-09-30T01:51:21;2.03;;;1.80;;
68010;SDS011;54794;48.348;7.878;2022-09-30T01:54:30;3.20;;;1.67;;
68010;SDS011;54794;48.348;7.878;2022-09-30T01:57:05;2.50;;;1.85;;
68010;SDS011;54794;48.348;7.878;2022-09-30T01:59:47;3.05;;;1.67;;
68010;SDS011;54794;48.348;7.878;2022-09-30T02:02:23;2.72;;;1.77;;
68010;SDS011;54794;48.348;7.878;2022-09-30T02:05:00;2.97;;;1.70;;
68010;SDS011;54794;48.348;7.878;2022-09-30T02:07:34;2.58;;;1.75;;
68010;SDS011;54794;48.348;7.878;2022-09-30T02:10:18;2.03;;;1.58;;
68010;SDS011;54794;48.348;7.878;2022-09-30T02:13:04;3.13;;;2.00;;
68010;SDS011;54794;48.348;7.878;2022-09-30T02:15:44;2.80;;;2.00;;
68010;SDS011;54794;48.348;7.878;2022-09-30T02:18:22;2.87;;;1.80;;
68010;SDS011;54794;48.348;7.878;2022-09-30T02:21:00;2.33;;;1.58;;
68010;SDS011;54794;48.348;7.878;2022-09-30T02:23:32;3.40;;;1.92;;
68010;SDS011;54794;48.348;7.878;2022-09-30T02:26:08;3.45;;;2.00;;
68010;SDS011;54794;48.348;7.878;2022-09-30T02:28:50;3.65;;;2.10;;
68010;SDS011;54794;48.348;7.878;2022-09-30T02:31:30;3.13;;;2.13;;
68010;SDS011;54794;48.348;7.878;2022-09-30T02:34:37;2.75;;;1.80;;
68010;SDS011;54794;48.348;7.878;2022-09-30T02:37:15;3.25;;;1.60;;
68010;SDS011;54794;48.348;7.878;2022-09-30T02:42:31;7.47;;;2.10;;
68010;SDS011;54794;48.348;7.878;2022-09-30T02:45:00;2.78;;;1.98;;
68010;SDS011;54794;48.348;7.878;2022-09-30T02:48:21;2.15;;;1.83;;
68010;SDS011;54794;48.348;7.878;2022-09-30T02:50:59;2.65;;;1.95;;
68010;SDS011;54794;48.348;7.878;2022-09-30T02:53:42;2.13;;;1.80;;
68010;SDS011;54794;48.348;7.878;2022-09-30T02:56:36;2.47;;;2.20;;
68010;SDS011;54794;48.348;7.878;2022-09-30T02:59:08;2.60;;;2.33;;
68010;SDS011;54794;48.348;7.878;2022-09-30T03:01:35;2.97;;;2.13;;
68010;SDS011;54794;48.348;7.878;2022-09-30T03:04:07;3.35;;;2.28;;
68010;SDS011;54794;48.348;7.878;2022-09-30T03:06:39;2.88;;;2.13;;
68010;SDS011;54794;48.348;7.878;2022-09-30T03:09:07;6.30;;;2.10;;
68010;SDS011;54794;48.348;7.878;2022-09-30T03:11:35;2.78;;;2.10;;
68010;SDS011;54794;48.348;7.878;2022-09-30T03:28:26;3.35;;;1.90;;
68010;SDS011;54794;48.348;7.878;2022-09-30T03:39:23;4.90;;;1.92;;
68010;SDS011;54794;48.348;7.878;2022-09-30T03:44:55;2.58;;;1.70;;
68010;SDS011;54794;48.348;7.878;2022-09-30T03:47:50;2.85;;;2.13;;
68010;SDS011;54794;48.348;7.878;2022-09-30T03:50:22;2.42;;;1.80;;
68010;SDS011;54794;48.348;7.878;2022-09-30T03:52:52;3.53;;;2.03;;
68010;SDS011;54794;48.348;7.878;2022-09-30T03:55:20;3.28;;;1.92;;
68010;SDS011;54794;48.348;7.878;2022-09-30T03:57:49;2.70;;;2.00;;
68010;SDS011;54794;48.348;7.878;2022-09-30T04:00:16;2.67;;;2.03;;
68010;SDS011;54794;48.348;7.878;2022-09-30T04:02:44;2.90;;;2.10;;
68010;SDS011;54794;48.348;7.878;2022-09-30T04:05:11;3.20;;;2.55;;
68010;SDS011;54794;48.348;7.878;2022-09-30T04:07:38;6.10;;;2.65;;
68010;SDS011;54794;48.348;7.878;2022-09-30T04:10:05;6.00;;;3.20;;
68010;SDS011;54794;48.348;7.878;2022-09-30T04:12:32;4.15;;;2.63;;
68010;SDS011;54794;48.348;7.878;2022-09-30T04:14:59;3.33;;;2.47;;
68010;SDS011;54794;48.348;7.878;2022-09-30T04:17:26;4.03;;;3.27;;
68010;SDS011;54794;48.348;7.878;2022-09-30T04:19:53;3.90;;;3.10;;
68010;SDS011;54794;48.348;7.878;2022-09-30T04:22:20;4.23;;;3.00;;
68010;SDS011;54794;48.348;7.878;2022-09-30T04:24:51;4.13;;;3.28;;
68010;SDS011;54794;48.348;7.878;2022-09-30T04:27:18;4.97;;;3.17;;
68010;SDS011;54794;48.348;7.878;2022-09-30T04:29:45;5.77;;;3.80;;
68010;SDS011;54794;48.348;7.878;2022-09-30T04:32:12;5.97;;;3.60;;
68010;SDS011;54794;48.348;7.878;2022-09-30T04:34:38;7.10;;;4.60;;
68010;SDS011;54794;48.348;7.878;2022-09-30T04:37:05;4.73;;;3.57;;
68010;SDS011;54794;48.348;7.878;2022-09-30T04:39:36;4.60;;;3.45;;
68010;SDS011;54794;48.348;7.878;2022-09-30T04:42:03;5.60;;;3.63;;
68010;SDS011;54794;48.348;7.878;2022-09-30T04:44:29;3.93;;;3.23;;
68010;SDS011;54794;48.348;7.878;2022-09-30T04:46:56;3.87;;;2.90;;
68010;SDS011;54794;48.348;7.878;2022-09-30T04:49:25;5.30;;;2.53;;
68010;SDS011;54794;48.348;7.878;2022-09-30T04:51:52;3.70;;;2.67;;
68010;SDS011;54794;48.348;7.878;2022-09-30T04:54:19;3.70;;;2.90;;
68010;SDS011;54794;48.348;7.878;2022-09-30T04:56:46;4.60;;;2.77;;
68010;SDS011;54794;48.348;7.878;2022-09-30T04:59:13;3.87;;;2.73;;
68010;SDS011;54794;48.348;7.878;2022-09-30T05:01:40;4.18;;;2.83;;
68010;SDS011;54794;48.348;7.878;2022-09-30T05:04:08;2.67;;;1.90;;
68010;SDS011;54794;48.348;7.878;2022-09-30T05:06:37;3.42;;;2.15;;
68010;SDS011;54794;48.348;7.878;2022-09-30T05:09:07;2.65;;;2.05;;
68010;SDS011;54794;48.348;7.878;2022-09-30T05:11:34;2.30;;;1.80;;
68010;SDS011;54794;48.348;7.878;2022-09-30T05:14:05;2.00;;;1.65;;
68010;SDS011;54794;48.348;7.878;2022-09-30T05:16:35;2.58;;;1.80;;
68010;SDS011;54794;48.348;7.878;2022-09-30T05:19:02;2.50;;;1.67;;
68010;SDS011;54794;48.348;7.878;2022-09-30T05:21:29;2.90;;;1.65;;
68010;SDS011;54794;48.348;7.878;2022-09-30T05:23:56;2.72;;;1.90;;
68010;SDS011;54794;48.348;7.878;2022-09-30T05:26:23;3.25;;;2.08;;
68010;SDS011;54794;48.348;7.878;2022-09-30T05:28:50;2.63;;;1.45;;
68010;SDS011;54794;48.348;7.878;2022-09-30T05:31:17;2.65;;;1.85;;
68010;SDS011;54794;48.348;7.878;2022-09-30T05:33:46;2.97;;;1.70;;
68010;SDS011;54794;48.348;7.878;2022-09-30T05:36:13;2.10;;;1.73;;
68010;SDS011;54794;48.348;7.878;2022-09-30T05:38:41;2.72;;;1.75;;
68010;SDS011;54794;48.348;7.878;2022-09-30T05:41:09;2.28;;;1.67;;
68010;SDS011;54794;48.348;7.878;2022-09-30T05:43:40;2.67;;;1.75;;
68010;SDS011;54794;48.348;7.878;2022-09-30T05:46:18;2.92;;;1.70;;
68010;SDS011;54794;48.348;7.878;2022-09-30T05:48:46;17.90;;;13.63;;
68010;SDS011;54794;48.348;7.878;2022-09-30T05:51:12;8.47;;;5.87;;
68010;SDS011;54794;48.348;7.878;2022-09-30T05:53:39;5.30;;;4.27;;
68010;SDS011;54794;48.348;7.878;2022-09-30T05:56:08;6.75;;;2.55;;
68010;SDS011;54794;48.348;7.878;2022-09-30T05:58:36;1.92;;;1.60;;
68010;SDS011;54794;48.348;7.878;2022-09-30T06:01:05;2.47;;;1.77;;
68010;SDS011;54794;48.348;7.878;2022-09-30T06:03:39;2.85;;;1.67;;
68010;SDS011;54794;48.348;7.878;2022-09-30T06:06:08;2.25;;;1.50;;
68010;SDS011;54794;48.348;7.878;2022-09-30T06:08:36;1.98;;;1.52;;
68010;SDS011;54794;48.348;7.878;2022-09-30T06:11:07;6.07;;;2.08;;
68010;SDS011;54794;48.348;7.878;2022-09-30T06:13:37;3.08;;;2.15;;
68010;SDS011;54794;48.348;7.878;2022-09-30T06:16:08;3.20;;;2.08;;
68010;SDS011;54794;48.348;7.878;2022-09-30T06:18:37;4.57;;;2.95;;
68010;SDS011;54794;48.348;7.878;2022-09-30T06:21:06;3.40;;;2.67;;
68010;SDS011;54794;48.348;7.878;2022-09-30T06:23:37;3.83;;;2.63;;
68010;SDS011;54794;48.348;7.878;2022-09-30T06:26:05;3.08;;;2.00;;
68010;SDS011;54794;48.348;7.878;2022-09-30T06:28:34;2.53;;;2.00;;
68010;SDS011;54794;48.348;7.878;2022-09-30T06:31:01;4.10;;;1.90;;
68010;SDS011;54794;48.348;7.878;2022-09-30T06:33:30;5.85;;;1.80;;
68010;SDS011;54794;48.348;7.878;2022-09-30T06:35:58;6.90;;;2.20;;
68010;SDS011;54794;48.348;7.878;2022-09-30T06:38:30;2.67;;;2.20;;
68010;SDS011;54794;48.348;7.878;2022-09-30T06:40:58;3.40;;;2.40;;
68010;SDS011;54794;48.348;7.878;2022-09-30T06:43:26;3.38;;;2.63;;
68010;SDS011;54794;48.348;7.878;2022-09-30T06:45:53;3.03;;;1.90;;
68010;SDS011;54794;48.348;7.878;2022-09-30T06:48:36;2.33;;;1.90;;
68010;SDS011;54794;48.348;7.878;2022-09-30T06:51:04;2.85;;;2.42;;
68010;SDS011;54794;48.348;7.878;2022-09-30T06:53:35;2.20;;;2.00;;
68010;SDS011;54794;48.348;7.878;2022-09-30T06:56:05;3.63;;;2.42;;
68010;SDS011;54794;48.348;7.878;2022-09-30T06:58:32;2.90;;;2.35;;
68010;SDS011;54794;48.348;7.878;2022-09-30T07:00:59;3.22;;;2.58;;
68010;SDS011;54794;48.348;7.878;2022-09-30T07:03:32;3.80;;;2.92;;
68010;SDS011;54794;48.348;7.878;2022-09-30T07:06:02;3.83;;;2.10;;
68010;SDS011;54794;48.348;7.878;2022-09-30T07:08:32;4.00;;;2.47;;
68010;SDS011;54794;48.348;7.878;2022-09-30T07:11:03;3.65;;;2.05;;
68010;SDS011;54794;48.348;7.878;2022-09-30T07:13:40;4.10;;;2.70;;
68010;SDS011;54794;48.348;7.878;2022-09-30T07:16:15;4.18;;;3.13;;
68010;SDS011;54794;48.348;7.878;2022-09-30T07:18:45;3.40;;;2.72;;
68010;SDS011;54794;48.348;7.878;2022-09-30T07:21:13;4.25;;;2.38;;
68010;SDS011;54794;48.348;7.878;2022-09-30T07:23:42;3.13;;;2.65;;
68010;SDS011;54794;48.348;7.878;2022-09-30T07:26:17;4.22;;;3.00;;
68010;SDS011;54794;48.348;7.878;2022-09-30T07:28:47;3.95;;;2.67;;
68010;SDS011;54794;48.348;7.878;2022-09-30T07:31:16;3.47;;;3.10;;
68010;SDS011;54794;48.348;7.878;2022-09-30T07:33:58;5.15;;;2.65;;
68010;SDS011;54794;48.348;7.878;2022-09-30T07:36:26;3.72;;;2.50;;
68010;SDS011;54794;48.348;7.878;2022-09-30T07:38:59;4.75;;;2.70;;
68010;SDS011;54794;48.348;7.878;2022-09-30T07:41:33;5.80;;;2.67;;
68010;SDS011;54794;48.348;7.878;2022-09-30T07:44:03;5.53;;;3.67;;
68010;SDS011;54794;48.348;7.878;2022-09-30T07:46:33;5.97;;;3.92;;
68010;SDS011;54794;48.348;7.878;2022-09-30T07:49:04;3.38;;;2.38;;
68010;SDS011;54794;48.348;7.878;2022-09-30T07:51:35;4.75;;;3.22;;
68010;SDS011;54794;48.348;7.878;2022-09-30T07:54:09;5.40;;;3.70;;
68010;SDS011;54794;48.348;7.878;2022-09-30T07:56:41;5.38;;;2.72;;
68010;SDS011;54794;48.348;7.878;2022-09-30T07:59:31;2.92;;;2.28;;
68010;SDS011;54794;48.348;7.878;2022-09-30T08:02:01;3.20;;;2.72;;
68010;SDS011;54794;48.348;7.878;2022-09-30T08:04:31;3.78;;;2.90;;
68010;SDS011;54794;48.348;7.878;2022-09-30T08:09:28;5.57;;;3.60;;
68010;SDS011;54794;48.348;7.878;2022-09-30T08:11:56;4.97;;;3.80;;
68010;SDS011;54794;48.348;7.878;2022-09-30T08:14:24;6.32;;;3.35;;
68010;SDS011;54794;48.348;7.878;2022-09-30T08:16:53;5.20;;;4.07;;
68010;SDS011;54794;48.348;7.878;2022-09-30T08:19:22;5.20;;;3.83;;
68010;SDS011;54794;48.348;7.878;2022-09-30T08:21:51;5.70;;;3.10;;
68010;SDS011;54794;48.348;7.878;2022-09-30T08:24:19;5.15;;;2.90;;
68010;SDS011;54794;48.348;7.878;2022-09-30T08:26:48;3.72;;;2.83;;
68010;SDS011;54794;48.348;7.878;2022-09-30T08:29:16;4.93;;;3.22;;
68010;SDS011;54794;48.348;7.878;2022-09-30T08:31:50;4.07;;;3.05;;
68010;SDS011;54794;48.348;7.878;2022-09-30T08:34:17;6.47;;;4.50;;
68010;SDS011;54794;48.348;7.878;2022-09-30T08:36:44;4.70;;;3.50;;
68010;SDS011;54794;48.348;7.878;2022-09-30T08:39:12;7.32;;;4.30;;
68010;SDS011;54794;48.348;7.878;2022-09-30T08:54:18;6.47;;;3.80;;
68010;SDS011;54794;48.348;7.878;2022-09-30T08:56:49;4.97;;;3.80;;
68010;SDS011;54794;48.348;7.878;2022-09-30T08:59:31;4.68;;;3.78;;
68010;SDS011;54794;48.348;7.878;2022-09-30T09:02:19;5.60;;;3.85;;
68010;SDS011;54794;48.348;7.878;2022-09-30T09:05:00;5.88;;;4.28;;
68010;SDS011;54794;48.348;7.878;2022-09-30T09:16:13;6.00;;;4.72;;
68010;SDS011;54794;48.348;7.878;2022-09-30T09:19:11;5.45;;;4.53;;
68010;SDS011;54794;48.348;7.878;2022-09-30T09:21:54;6.88;;;5.25;;
68010;SDS011;54794;48.348;7.878;2022-09-30T09:24:28;6.55;;;4.80;;
68010;SDS011;54794;48.348;7.878;2022-09-30T09:27:19;6.78;;;4.85;;
68010;SDS011;54794;48.348;7.878;2022-09-30T09:32:33;6.78;;;4.72;;
68010;SDS011;54794;48.348;7.878;2022-09-30T09:35:14;7.22;;;4.70;;
68010;SDS011;54794;48.348;7.878;2022-09-30T09:40:57;4.38;;;3.83;;
68010;SDS011;54794;48.348;7.878;2022-09-30T09:46:42;5.00;;;3.95;;
68010;SDS011;54794;48.348;7.878;2022-09-30T09:54:33;5.53;;;4.28;;
68010;SDS011;54794;48.348;7.878;2022-09-30T09:57:11;5.07;;;3.80;;
68010;SDS011;54794;48.348;7.878;2022-09-30T10:00:00;5.85;;;4.05;;
68010;SDS011;54794;48.348;7.878;2022-09-30T10:02:58;6.70;;;4.38;;
68010;SDS011;54794;48.348;7.878;2022-09-30T10:05:38;5.28;;;3.88;;
68010;SDS011;54794;48.348;7.878;2022-09-30T10:10:48;4.00;;;3.28;;
68010;SDS011;54794;48.348;7.878;2022-09-30T10:13:23;5.05;;;3.95;;
68010;SDS011;54794;48.348;7.878;2022-09-30T10:15:56;4.88;;;3.83;;
68010;SDS011;54794;48.348;7.878;2022-09-30T10:21:07;4.68;;;3.90;;
68010;SDS011;54794;48.348;7.878;2022-09-30T10:23:49;8.15;;;4.68;;
68010;SDS011;54794;48.348;7.878;2022-09-30T10:26:18;4.53;;;3.55;;
68010;SDS011;54794;48.348;7.878;2022-09-30T10:28:52;8.85;;;4.10;;
68010;SDS011;54794;48.348;7.878;2022-09-30T10:31:35;6.20;;;3.47;;
68010;SDS011;54794;48.348;7.878;2022-09-30T10:34:28;5.15;;;3.92;;
68010;SDS011;54794;48.348;7.878;2022-09-30T10:37:07;5.13;;;3.60;;
68010;SDS011;54794;48.348;7.878;2022-09-30T10:39:48;4.95;;;3.58;;
68010;SDS011;54794;48.348;7.878;2022-09-30T10:42:32;3.83;;;3.20;;
68010;SDS011;54794;48.348;7.878;2022-09-30T10:45:04;5.07;;;3.70;;
68010;SDS011;54794;48.348;7.878;2022-09-30T10:47:45;3.72;;;3.17;;
68010;SDS011;54794;48.348;7.878;2022-09-30T10:50:24;4.03;;;3.22;;
68010;SDS011;54794;48.348;7.878;2022-09-30T10:52:54;4.35;;;3.22;;
68010;SDS011;54794;48.348;7.878;2022-09-30T10:55:29;5.90;;;4.03;;
68010;SDS011;54794;48.348;7.878;2022-09-30T10:58:08;5.88;;;3.90;;
68010;SDS011;54794;48.348;7.878;2022-09-30T11:00:53;5.30;;;3.72;;
68010;SDS011;54794;48.348;7.878;2022-09-30T11:03:35;4.78;;;3.97;;
68010;SDS011;54794;48.348;7.878;2022-09-30T11:06:18;4.63;;;3.83;;
68010;SDS011;54794;48.348;7.878;2022-09-30T11:08:50;4.57;;;3.17;;
68010;SDS011;54794;48.348;7.878;2022-09-30T11:11:28;5.03;;;3.63;;
68010;SDS011;54794;48.348;7.878;2022-09-30T11:17:03;3.80;;;3.25;;
68010;SDS011;54794;48.348;7.878;2022-09-30T11:20:25;4.93;;;3.17;;
68010;SDS011;54794;48.348;7.878;2022-09-30T11:25:57;6.55;;;3.58;;
68010;SDS011;54794;48.348;7.878;2022-09-30T11:32:01;5.30;;;4.00;;
68010;SDS011;54794;48.348;7.878;2022-09-30T11:41:14;8.15;;;3.40;;
68010;SDS011;54794;48.348;7.878;2022-09-30T11:55:29;6.57;;;2.92;;
68010;SDS011;54794;48.348;7.878;2022-09-30T11:58:30;4.55;;;3.08;;
68010;SDS011;54794;48.348;7.878;2022-09-30T12:01:13;4.07;;;3.45;;
68010;SDS011;54794;48.348;7.878;2022-09-30T12:04:26;4.63;;;3.38;;
68010;SDS011;54794;48.348;7.878;2022-09-30T12:09:58;4.22;;;2.90;;
68010;SDS011;54794;48.348;7.878;2022-09-30T12:12:39;4.22;;;2.72;;
68010;SDS011;54794;48.348;7.878;2022-09-30T12:15:11;3.35;;;2.70;;
68010;SDS011;54794;48.348;7.878;2022-09-30T12:17:45;4.82;;;3.00;;
68010;SDS011;54794;48.348;7.878;2022-09-30T12:22:51;3.65;;;2.47;;
68010;SDS011;54794;48.348;7.878;2022-09-30T12:25:30;3.47;;;2.50;;
68010;SDS011;54794;48.348;7.878;2022-09-30T12:28:06;3.05;;;2.00;;
68010;SDS011;54794;48.348;7.878;2022-09-30T12:33:55;4.57;;;2.13;;
68010;SDS011;54794;48.348;7.878;2022-09-30T12:46:01;2.50;;;1.50;;
68010;SDS011;54794;48.348;7.878;2022-09-30T12:51:35;1.45;;;1.13;;
68010;SDS011;54794;48.348;7.878;2022-09-30T12:54:13;1.85;;;1.17;;
68010;SDS011;54794;48.348;7.878;2022-09-30T12:56:54;3.05;;;1.65;;
68010;SDS011;54794;48.348;7.878;2022-09-30T12:59:27;2.50;;;1.60;;
68010;SDS011;54794;48.348;7.878;2022-09-30T13:01:59;1.85;;;1.50;;
68010;SDS011;54794;48.348;7.878;2022-09-30T13:04:33;1.73;;;1.30;;
68010;SDS011;54794;48.348;7.878;2022-09-30T13:07:05;1.48;;;1.27;;
68010;SDS011;54794;48.348;7.878;2022-09-30T13:09:58;1.42;;;1.33;;
68010;SDS011;54794;48.348;7.878;2022-09-30T13:13:07;3.10;;;1.45;;
68010;SDS011;54794;48.348;7.878;2022-09-30T13:15:53;2.65;;;1.55;;
68010;SDS011;54794;48.348;7.878;2022-09-30T13:20:56;1.57;;;1.27;;
68010;SDS011;54794;48.348;7.878;2022-09-30T13:23:47;3.10;;;1.08;;
68010;SDS011;54794;48.348;7.878;2022-09-30T13:31:31;3.47;;;1.10;;
68010;SDS011;54794;48.348;7.878;2022-09-30T13:34:22;6.40;;;1.10;;
68010;SDS011;54794;48.348;7.878;2022-09-30T13:42:26;3.33;;;1.35;;
68010;SDS011;54794;48.348;7.878;2022-09-30T13:45:08;1.60;;;1.08;;
68010;SDS011;54794;48.348;7.878;2022-09-30T13:50:47;2.28;;;1.50;;
68010;SDS011;54794;48.348;7.878;2022-09-30T13:55:58;2.03;;;1.58;;
68010;SDS011;54794;48.348;7.878;2022-09-30T14:19:01;1.55;;;0.85;;
68010;SDS011;54794;48.348;7.878;2022-09-30T14:22:10;2.13;;;1.20;;
68010;SDS011;54794;48.348;7.878;2022-09-30T14:24:40;1.95;;;0.88;;
68010;SDS011;54794;48.348;7.878;2022-09-30T14:27:20;1.85;;;1.00;;
68010;SDS011;54794;48.348;7.878;2022-09-30T14:30:12;1.23;;;1.00;;
68010;SDS011;54794;48.348;7.878;2022-09-30T14:32:46;1.90;;;1.00;;
68010;SDS011;54794;48.348;7.878;2022-09-30T14:35:17;1.67;;;0.93;;
68010;SDS011;54794;48.348;7.878;2022-09-30T14:37:51;2.30;;;0.95;;
68010;SDS011;54794;48.348;7.878;2022-09-30T14:40:49;2.50;;;1.15;;
68010;SDS011;54794;48.348;7.878;2022-09-30T14:43:20;2.88;;;1.05;;
68010;SDS011;54794;48.348;7.878;2022-09-30T14:45:53;1.38;;;0.90;;
68010;SDS011;54794;48.348;7.878;2022-09-30T14:48:24;0.98;;;0.70;;
68010;SDS011;54794;48.348;7.878;2022-09-30T14:56:28;0.88;;;0.50;;
68010;SDS011;54794;48.348;7.878;2022-09-30T14:59:17;2.45;;;0.68;;
68010;SDS011;54794;48.348;7.878;2022-09-30T15:02:18;1.35;;;0.60;;
68010;SDS011;54794;48.348;7.878;2022-09-30T15:04:49;0.70;;;0.52;;
68010;SDS011;54794;48.348;7.878;2022-09-30T15:07:23;1.20;;;0.52;;
68010;SDS011;54794;48.348;7.878;2022-09-30T15:09:50;0.65;;;0.45;;
68010;SDS011;54794;48.348;7.878;2022-09-30T15:12:19;0.80;;;0.50;;
68010;SDS011;54794;48.348;7.878;2022-09-30T15:14:49;0.60;;;0.50;;
68010;SDS011;54794;48.348;7.878;2022-09-30T15:20:02;0.95;;;0.40;;
68010;SDS011;54794;48.348;7.878;2022-09-30T15:22:52;0.63;;;0.43;;
68010;SDS011;54794;48.348;7.878;2022-09-30T15:25:20;0.65;;;0.28;;
68010;SDS011;54794;48.348;7.878;2022-09-30T15:27:47;1.20;;;0.50;;
68010;SDS011;54794;48.348;7.878;2022-09-30T15:32:43;0.93;;;0.50;;
68010;SDS011;54794;48.348;7.878;2022-09-30T15:35:20;0.68;;;0.50;;
68010;SDS011;54794;48.348;7.878;2022-09-30T15:37:49;1.70;;;0.30;;
68010;SDS011;54794;48.348;7.878;2022-09-30T15:40:18;0.80;;;0.38;;
68010;SDS011;54794;48.348;7.878;2022-09-30T15:43:08;0.95;;;0.50;;
68010;SDS011;54794;48.348;7.878;2022-09-30T15:45:41;1.33;;;0.60;;
68010;SDS011;54794;48.348;7.878;2022-09-30T15:50:43;0.40;;;0.35;;
68010;SDS011;54794;48.348;7.878;2022-09-30T15:56:15;0.60;;;0.47;;
68010;SDS011;54794;48.348;7.878;2022-09-30T16:01:34;1.55;;;0.40;;
68010;SDS011;54794;48.348;7.878;2022-09-30T16:12:15;1.80;;;0.73;;
68010;SDS011;54794;48.348;7.878;2022-09-30T16:15:06;0.65;;;0.65;;
68010;SDS011;54794;48.348;7.878;2022-09-30T16:17:43;0.60;;;0.50;;
68010;SDS011;54794;48.348;7.878;2022-09-30T16:27:59;0.95;;;0.60;;
68010;SDS011;54794;48.348;7.878;2022-09-30T16:30:49;1.05;;;0.60;;
68010;SDS011;54794;48.348;7.878;2022-09-30T16:33:19;0.75;;;0.70;;
68010;SDS011;54794;48.348;7.878;2022-09-30T16:35:46;0.52;;;0.43;;
68010;SDS011;54794;48.348;7.878;2022-09-30T16:38:14;2.00;;;0.70;;
68010;SDS011;54794;48.348;7.878;2022-09-30T16:40:42;1.60;;;0.60;;
68010;SDS011;54794;48.348;7.878;2022-09-30T16:43:09;0.75;;;0.73;;
68010;SDS011;54794;48.348;7.878;2022-09-30T16:45:37;1.00;;;0.68;;
68010;SDS011;54794;48.348;7.878;2022-09-30T16:48:15;3.15;;;0.93;;
68010;SDS011;54794;48.348;7.878;2022-09-30T16:53:33;2.97;;;1.27;;
68010;SDS011;54794;48.348;7.878;2022-09-30T16:56:00;2.15;;;1.35;;
68010;SDS011;54794;48.348;7.878;2022-09-30T16:58:27;3.75;;;1.13;;
68010;SDS011;54794;48.348;7.878;2022-09-30T17:03:22;1.02;;;0.85;;
68010;SDS011;54794;48.348;7.878;2022-09-30T17:05:49;1.55;;;1.10;;
68010;SDS011;54794;48.348;7.878;2022-09-30T17:08:18;2.70;;;1.20;;
68010;SDS011;54794;48.348;7.878;2022-09-30T17:10:47;1.27;;;1.10;;
68010;SDS011;54794;48.348;7.878;2022-09-30T17:15:47;1.52;;;0.90;;
68010;SDS011;54794;48.348;7.878;2022-09-30T17:18:17;1.20;;;0.90;;
68010;SDS011;54794;48.348;7.878;2022-09-30T17:20:45;2.35;;;1.73;;
68010;SDS011;54794;48.348;7.878;2022-09-30T17:23:18;6.13;;;2.15;;
68010;SDS011;54794;48.348;7.878;2022-09-30T17:25:47;4.60;;;2.28;;
68010;SDS011;54794;48.348;7.878;2022-09-30T17:28:15;3.10;;;1.90;;
68010;SDS011;54794;48.348;7.878;2022-09-30T17:30:43;1.95;;;1.30;;
68010;SDS011;54794;48.348;7.878;2022-09-30T17:33:13;2.00;;;1.35;;
68010;SDS011;54794;48.348;7.878;2022-09-30T17:35:40;1.95;;;1.17;;
68010;SDS011;54794;48.348;7.878;2022-09-30T17:38:07;8.05;;;1.77;;
68010;SDS011;54794;48.348;7.878;2022-09-30T17:40:38;3.38;;;1.58;;
68010;SDS011;54794;48.348;7.878;2022-09-30T17:43:23;5.97;;;1.98;;
68010;SDS011;54794;48.348;7.878;2022-09-30T17:45:57;5.53;;;2.33;;
68010;SDS011;54794;48.348;7.878;2022-09-30T17:48:24;2.97;;;2.08;;
68010;SDS011;54794;48.348;7.878;2022-09-30T17:50:51;4.03;;;2.13;;
68010;SDS011;54794;48.348;7.878;2022-09-30T17:53:19;3.40;;;2.00;;
68010;SDS011;54794;48.348;7.878;2022-09-30T17:55:48;2.97;;;1.77;;
68010;SDS011;54794;48.348;7.878;2022-09-30T17:58:28;1.88;;;1.40;;
68010;SDS011;54794;48.348;7.878;2022-09-30T18:00:55;2.28;;;1.60;;
68010;SDS011;54794;48.348;7.878;2022-09-30T18:03:25;7.95;;;2.45;;
68010;SDS011;54794;48.348;7.878;2022-09-30T18:05:56;3.88;;;2.10;;
68010;SDS011;54794;48.348;7.878;2022-09-30T18:08:24;4.15;;;2.00;;
68010;SDS011;54794;48.348;7.878;2022-09-30T18:10:51;3.08;;;1.73;;
68010;SDS011;54794;48.348;7.878;2022-09-30T18:13:18;4.07;;;1.90;;
68010;SDS011;54794;48.348;7.878;2022-09-30T18:15:45;5.40;;;1.42;;
68010;SDS011;54794;48.348;7.878;2022-09-30T18:18:12;2.50;;;1.55;;
68010;SDS011;54794;48.348;7.878;2022-09-30T18:20:43;2.85;;;1.98;;
68010;SDS011;54794;48.348;7.878;2022-09-30T18:23:13;2.28;;;1.67;;
68010;SDS011;54794;48.348;7.878;2022-09-30T18:25:44;3.65;;;1.48;;
68010;SDS011;54794;48.348;7.878;2022-09-30T18:28:14;4.43;;;1.45;;
68010;SDS011;54794;48.348;7.878;2022-09-30T18:33:09;3.55;;;1.30;;
68010;SDS011;54794;48.348;7.878;2022-09-30T18:35:37;3.40;;;1.63;;
68010;SDS011;54794;48.348;7.878;2022-09-30T18:38:04;2.40;;;1.83;;
68010;SDS011;54794;48.348;7.878;2022-09-30T18:40:32;3.33;;;2.05;;
68010;SDS011;54794;48.348;7.878;2022-09-30T18:43:00;3.10;;;2.30;;
68010;SDS011;54794;48.348;7.878;2022-09-30T18:45:31;4.70;;;3.03;;
68010;SDS011;54794;48.348;7.878;2022-09-30T18:48:01;5.22;;;2.85;;
68010;SDS011;54794;48.348;7.878;2022-09-30T18:52:57;3.50;;;2.13;;
68010;SDS011;54794;48.348;7.878;2022-09-30T18:55:31;5.50;;;3.05;;
68010;SDS011;54794;48.348;7.878;2022-09-30T18:57:59;5.60;;;2.83;;
68010;SDS011;54794;48.348;7.878;2022-09-30T19:00:25;4.33;;;2.53;;
68010;SDS011;54794;48.348;7.878;2022-09-30T19:02:55;7.63;;;2.92;;
68010;SDS011;54794;48.348;7.878;2022-09-30T19:05:23;7.95;;;3.33;;
68010;SDS011;54794;48.348;7.878;2022-09-30T19:07:50;5.10;;;3.13;;
68010;SDS011;54794;48.348;7.878;2022-09-30T19:10:18;4.20;;;2.70;;
68010;SDS011;54794;48.348;7.878;2022-09-30T19:12:46;4.43;;;3.10;;
68010;SDS011;54794;48.348;7.878;2022-09-30T19:15:13;4.47;;;2.42;;
68010;SDS011;54794;48.348;7.878;2022-09-30T19:17:44;4.25;;;2.60;;
68010;SDS011;54794;48.348;7.878;2022-09-30T19:20:12;2.78;;;1.42;;
68010;SDS011;54794;48.348;7.878;2022-09-30T19:22:40;3.53;;;1.75;;
68010;SDS011;54794;48.348;7.878;2022-09-30T19:25:08;3.30;;;2.00;;